Wind Lake, Wisconsin
Current Conditions -  °F | °C
As of 4:15 PM on Friday 24 Oct 2014 (Local Time) from KBUU Reporting Station
Clear Clear  
Wind Chill: 60°   Ceiling: Unl
Heat Index: 60°   Visibility: 10mi
Dew Point: 49°   Wind: 7mph
Humidity: 69%   Direction: 200°SSW
Pressure: 29.95"   Gusts: NA
Location:  42.796°N, 88.1897°W
Report Text: KBUU 242115Z AUTO 20006KT 10SM CLR 15/10 A2995 RMK AO2 T01540097
Loading
Personal Weather Stations






























Interactive Weather Map
Tropical Storm Tracking
New forecast layout! Learn more

10-Day Weather Forecast

Advertisements
Track Severe Weather on mobile